createdAt,value
2022-12-03T00:02:28.453Z,4.58
2022-12-03T00:07:31.134Z,4.63
2022-12-03T00:12:33.855Z,4.59
2022-12-03T00:17:37.859Z,4.61
2022-12-03T00:22:40.360Z,4.55
2022-12-03T00:27:42.902Z,4.58
2022-12-03T00:32:46.768Z,4.46
2022-12-03T00:37:49.287Z,4.63
2022-12-03T00:42:51.803Z,4.68
2022-12-03T00:47:55.649Z,4.67
2022-12-03T00:52:58.148Z,4.69
2022-12-03T00:58:00.837Z,4.57
2022-12-03T01:03:05.547Z,4.58
2022-12-03T01:08:08.097Z,4.69
2022-12-03T01:13:11.327Z,4.64
2022-12-03T01:18:15.173Z,4.70
2022-12-03T01:23:17.751Z,4.65
2022-12-03T01:28:20.271Z,4.59
2022-12-03T01:33:24.201Z,4.54
2022-12-03T01:38:26.733Z,4.60
2022-12-03T01:43:29.433Z,4.53
2022-12-03T01:48:37.034Z,4.67
2022-12-03T01:53:39.626Z,4.70
2022-12-03T01:58:43.626Z,4.66
2022-12-03T02:03:48.108Z,4.63
2022-12-03T02:08:58.615Z,4.59
2022-12-03T02:14:03.987Z,4.61
2022-12-03T02:19:17.625Z,4.50
2022-12-03T02:24:30.011Z,4.56
2022-12-03T02:29:33.881Z,4.50
2022-12-03T02:34:39.335Z,4.64
2022-12-03T02:39:46.539Z,3.98
2022-12-03T02:44:50.871Z,4.64
2022-12-03T02:49:53.686Z,4.72
2022-12-03T02:54:56.500Z,4.70
2022-12-03T03:00:00.502Z,4.71
2022-12-03T03:05:03.556Z,4.66
2022-12-03T03:10:10.300Z,4.53
2022-12-03T03:15:14.875Z,4.31
2022-12-03T03:20:22.101Z,4.64
2022-12-03T03:25:24.895Z,4.63
2022-12-03T03:30:29.689Z,4.61
2022-12-03T03:35:32.482Z,4.63
2022-12-03T03:40:35.584Z,4.43
2022-12-03T03:45:39.790Z,4.22
2022-12-03T03:50:44.326Z,4.46
2022-12-03T03:55:50.243Z,4.52
2022-12-03T04:00:56.130Z,4.20
2022-12-03T04:05:59.267Z,4.39
2022-12-03T04:11:20.662Z,4.52
2022-12-03T04:16:24.759Z,4.45
2022-12-03T04:22:00.954Z,4.43
2022-12-03T04:27:21.328Z,4.50
2022-12-03T04:32:54.159Z,4.47
2022-12-03T04:37:57.861Z,4.53
2022-12-03T04:43:00.551Z,4.51
2022-12-03T04:48:04.737Z,4.51
2022-12-03T04:53:07.864Z,4.50
2022-12-03T04:58:10.674Z,4.55
2022-12-03T05:03:14.649Z,4.54
2022-12-03T05:08:17.422Z,4.57
2022-12-03T05:13:20.113Z,4.49
2022-12-03T05:18:24.135Z,4.53
2022-12-03T05:23:26.852Z,4.17
2022-12-03T05:28:29.395Z,4.47
2022-12-03T05:33:33.458Z,4.33
2022-12-03T05:38:36.089Z,4.62
2022-12-03T05:43:38.598Z,4.55
2022-12-03T05:48:42.478Z,4.48
2022-12-03T05:53:45.309Z,4.42
2022-12-03T05:58:48.122Z,4.34
2022-12-03T06:03:52.145Z,4.37
2022-12-03T06:08:54.878Z,4.15
2022-12-03T06:13:57.505Z,4.40
2022-12-03T06:19:02.024Z,4.36
2022-12-03T06:24:04.735Z,4.47
2022-12-03T06:29:07.233Z,4.43
2022-12-03T06:34:11.328Z,4.31
2022-12-03T06:39:13.947Z,4.36
2022-12-03T06:44:16.847Z,4.25
2022-12-03T06:49:21.002Z,4.28
2022-12-03T06:54:23.634Z,4.29
2022-12-03T06:59:26.315Z,4.46
2022-12-03T07:04:30.391Z,4.34
2022-12-03T07:09:33.017Z,4.41
2022-12-03T07:14:35.675Z,4.39
2022-12-03T07:19:39.695Z,4.29
2022-12-03T07:24:42.533Z,4.27
2022-12-03T07:29:45.071Z,4.27
2022-12-03T07:34:48.975Z,4.29
2022-12-03T07:39:52.285Z,4.29
2022-12-03T07:44:55.187Z,4.40
2022-12-03T07:49:59.544Z,4.49
2022-12-03T07:55:02.629Z,4.41
2022-12-03T08:00:06.711Z,4.34
2022-12-03T08:05:11.367Z,4.50
2022-12-03T08:10:14.023Z,4.30
2022-12-03T08:15:19.830Z,4.42
2022-12-03T08:20:26.563Z,4.51
2022-12-03T08:25:30.857Z,4.33
2022-12-03T08:30:33.393Z,4.29
2022-12-03T08:35:37.622Z,4.27
2022-12-03T08:40:42.107Z,4.34
2022-12-03T08:45:45.646Z,4.38
2022-12-03T08:50:50.340Z,4.37
2022-12-03T08:55:54.819Z,4.28
2022-12-03T09:00:59.613Z,4.34
2022-12-03T09:06:03.615Z,4.36
2022-12-03T09:11:06.923Z,4.36
2022-12-03T09:16:09.751Z,4.42
2022-12-03T09:21:13.684Z,4.45
2022-12-03T09:26:16.285Z,4.53
2022-12-03T09:31:18.948Z,4.61
2022-12-03T09:36:23.014Z,4.45
2022-12-03T09:41:26.950Z,4.52
2022-12-03T09:46:31.037Z,4.36
2022-12-03T09:51:37.120Z,4.32
2022-12-03T09:56:39.947Z,4.29
2022-12-03T10:01:43.370Z,4.34
2022-12-03T10:06:47.675Z,4.39
2022-12-03T10:11:50.443Z,4.47
2022-12-03T10:16:53.263Z,4.47
2022-12-03T10:21:57.179Z,4.48
2022-12-03T10:27:01.611Z,4.51
2022-12-03T10:32:06.480Z,4.57
2022-12-03T10:37:16.410Z,4.55
2022-12-03T10:42:19.969Z,4.50
2022-12-03T10:47:24.887Z,4.56
2022-12-03T10:52:28.909Z,4.49
2022-12-03T10:57:31.555Z,4.61
2022-12-03T11:02:37.095Z,4.68
2022-12-03T11:07:43.353Z,4.63
2022-12-03T11:13:19.489Z,4.75
2022-12-03T11:18:55.720Z,4.84
2022-12-03T11:24:21.551Z,4.80
2022-12-03T11:29:49.617Z,4.87
2022-12-03T11:34:52.903Z,4.92
2022-12-03T11:40:28.333Z,4.88
2022-12-03T11:45:34.491Z,4.91
2022-12-03T11:50:40.385Z,4.83
2022-12-03T11:55:48.542Z,4.74
2022-12-03T12:00:52.815Z,4.76
2022-12-03T12:06:07.540Z,4.82
2022-12-03T12:11:26.244Z,4.88
2022-12-03T12:16:50.390Z,4.82
2022-12-03T12:21:53.232Z,4.89
2022-12-03T12:26:57.981Z,4.93
2022-12-03T12:32:08.019Z,4.92
2022-12-03T12:37:18.377Z,4.85
2022-12-03T12:42:36.670Z,4.86
2022-12-03T12:47:39.489Z,4.88
2022-12-03T12:52:50.613Z,4.83
2022-12-03T12:57:56.987Z,4.90
2022-12-03T13:03:01.113Z,4.90
2022-12-03T13:08:10.090Z,4.85
2022-12-03T13:13:32.105Z,4.89
2022-12-03T13:18:45.669Z,4.80
2022-12-03T13:23:48.822Z,4.76
2022-12-03T13:28:53.241Z,4.86
2022-12-03T13:33:56.851Z,4.77
2022-12-03T13:38:59.577Z,4.77
2022-12-03T13:44:10.927Z,4.69
2022-12-03T13:49:19.689Z,4.60
2022-12-03T13:54:24.623Z,4.69
2022-12-03T13:59:28.459Z,4.65
2022-12-03T14:04:31.099Z,4.71
2022-12-03T14:09:33.859Z,4.73
2022-12-03T14:14:38.244Z,4.80
2022-12-03T14:19:40.794Z,4.72
2022-12-03T14:24:43.521Z,4.62
2022-12-03T14:29:47.846Z,4.62
2022-12-03T14:34:50.480Z,4.56
2022-12-03T14:39:53.283Z,4.43
2022-12-03T14:44:57.343Z,4.60
2022-12-03T14:49:59.959Z,4.44
2022-12-03T14:55:02.585Z,4.51
2022-12-03T15:00:08.115Z,4.48
2022-12-03T15:05:11.175Z,4.54
2022-12-03T15:10:13.809Z,4.56
2022-12-03T15:15:18.518Z,4.51
2022-12-03T15:20:22.466Z,4.50
2022-12-03T15:25:25.934Z,4.48
2022-12-03T15:30:30.727Z,4.44
2022-12-03T15:35:33.640Z,4.39
2022-12-03T15:40:38.023Z,4.31
2022-12-03T15:45:42.398Z,4.13
2022-12-03T15:50:44.932Z,4.07
2022-12-03T15:55:47.454Z,4.17
2022-12-03T16:00:51.388Z,4.23
2022-12-03T16:05:53.908Z,4.17
2022-12-03T16:10:56.833Z,4.10
2022-12-03T16:16:02.234Z,4.10
2022-12-03T16:21:04.976Z,4.12
2022-12-03T16:26:07.518Z,4.05
2022-12-03T16:31:11.405Z,4.15
2022-12-03T16:36:15.406Z,4.10
2022-12-03T16:41:19.193Z,4.06
2022-12-03T16:46:26.005Z,4.06
2022-12-03T16:51:30.122Z,4.02
2022-12-03T16:56:32.656Z,4.02
2022-12-03T17:01:36.617Z,4.06
2022-12-03T17:06:39.163Z,4.09
2022-12-03T17:11:41.996Z,4.04
2022-12-03T17:16:46.417Z,4.03
2022-12-03T17:21:48.995Z,4.18
2022-12-03T17:26:51.670Z,4.09
2022-12-03T17:31:56.615Z,4.14
2022-12-03T17:36:59.247Z,4.16
2022-12-03T17:42:01.785Z,4.01
2022-12-03T17:47:05.791Z,3.95
2022-12-03T17:52:08.664Z,4.08
2022-12-03T17:57:11.383Z,4.16
2022-12-03T18:02:15.467Z,4.00
2022-12-03T18:07:18.111Z,4.12
2022-12-03T18:12:20.646Z,4.09
2022-12-03T18:17:24.900Z,3.94
2022-12-03T18:22:28.791Z,3.87
2022-12-03T18:27:31.509Z,3.86
2022-12-03T18:32:35.423Z,3.95
2022-12-03T18:37:38.543Z,3.97
2022-12-03T18:42:41.058Z,3.89
2022-12-03T18:47:45.525Z,3.86
2022-12-03T18:52:48.129Z,3.94
2022-12-03T18:57:50.666Z,3.94
2022-12-03T19:03:03.087Z,3.94
2022-12-03T19:08:13.951Z,3.99
2022-12-03T19:13:16.606Z,3.89
2022-12-03T19:18:20.458Z,3.94
2022-12-03T19:23:23.294Z,3.98
2022-12-03T19:28:26.417Z,3.85
2022-12-03T19:33:31.206Z,3.86
2022-12-03T19:38:34.625Z,3.92
2022-12-03T19:43:38.872Z,3.74
2022-12-03T19:48:43.105Z,3.77
2022-12-03T19:53:45.657Z,3.71
2022-12-03T19:58:48.758Z,3.76
2022-12-03T20:03:54.118Z,3.71
2022-12-03T20:08:59.825Z,3.61
2022-12-03T20:14:04.433Z,3.71
2022-12-03T20:19:12.043Z,3.77
2022-12-03T20:24:17.653Z,3.76
2022-12-03T20:29:20.255Z,3.81
2022-12-03T20:34:24.190Z,3.76
2022-12-03T20:39:27.354Z,3.79
2022-12-03T20:44:30.107Z,3.81
2022-12-03T20:49:34.185Z,3.71
2022-12-03T20:54:37.109Z,3.68
2022-12-03T20:59:39.771Z,3.59
2022-12-03T21:04:44.208Z,3.54
2022-12-03T21:09:46.986Z,3.72
2022-12-03T21:14:49.781Z,3.72
2022-12-03T21:19:54.489Z,3.62
2022-12-03T21:24:57.519Z,3.76
2022-12-03T21:30:00.127Z,3.62
2022-12-03T21:35:04.116Z,3.59
2022-12-03T21:40:08.273Z,3.67
2022-12-03T21:45:11.375Z,3.83
2022-12-03T21:50:15.507Z,3.81
2022-12-03T21:55:18.127Z,3.74
2022-12-03T22:00:21.701Z,3.89
2022-12-03T22:05:25.589Z,3.91
2022-12-03T22:10:28.109Z,3.86
2022-12-03T22:15:30.628Z,3.81
2022-12-03T22:20:34.534Z,3.87
2022-12-03T22:25:46.617Z,3.97
2022-12-03T22:30:49.238Z,3.99
2022-12-03T22:35:58.542Z,4.06
2022-12-03T22:41:05.758Z,3.94
2022-12-03T22:46:10.859Z,3.79
2022-12-03T22:51:16.548Z,3.78
2022-12-03T22:56:22.283Z,3.68
2022-12-03T23:01:26.796Z,3.87
2022-12-03T23:06:30.437Z,3.82
2022-12-03T23:11:34.711Z,3.83
2022-12-03T23:16:37.665Z,3.79
2022-12-03T23:21:40.254Z,3.60
2022-12-03T23:26:44.124Z,3.76
2022-12-03T23:31:46.722Z,3.76
2022-12-03T23:36:49.251Z,3.58
2022-12-03T23:41:53.540Z,3.75
2022-12-03T23:46:56.120Z,3.64
2022-12-03T23:51:58.687Z,3.65
2022-12-03T23:57:02.659Z,3.75
